sensor_id;sensor_type;location;lat;lon;timestamp;temperature;humidity
22787;DHT22;63134;52.020;4.714;2023-01-29T00:00:33;5.90;83.20
22787;DHT22;63134;52.020;4.714;2023-01-29T00:03:18;5.90;83.30
22787;DHT22;63134;52.020;4.714;2023-01-29T00:06:05;5.90;83.30
22787;DHT22;63134;52.020;4.714;2023-01-29T00:08:51;5.90;83.50
22787;DHT22;63134;52.020;4.714;2023-01-29T00:11:36;5.90;83.50
22787;DHT22;63134;52.020;4.714;2023-01-29T00:14:22;6.00;83.60
22787;DHT22;63134;52.020;4.714;2023-01-29T00:17:07;6.00;83.50
22787;DHT22;63134;52.020;4.714;2023-01-29T00:19:54;6.00;83.60
22787;DHT22;63134;52.020;4.714;2023-01-29T00:22:40;6.00;83.60
22787;DHT22;63134;52.020;4.714;2023-01-29T00:25:25;6.00;84.60
22787;DHT22;63134;52.020;4.714;2023-01-29T00:28:11;5.90;83.90
22787;DHT22;63134;52.020;4.714;2023-01-29T00:30:56;5.90;84.00
22787;DHT22;63134;52.020;4.714;2023-01-29T00:33:42;5.90;84.10
22787;DHT22;63134;52.020;4.714;2023-01-29T00:36:28;6.00;84.20
22787;DHT22;63134;52.020;4.714;2023-01-29T00:39:13;5.90;84.20
22787;DHT22;63134;52.020;4.714;2023-01-29T00:41:58;5.90;84.40
22787;DHT22;63134;52.020;4.714;2023-01-29T00:45:02;6.00;84.20
22787;DHT22;63134;52.020;4.714;2023-01-29T00:47:52;6.00;84.20
22787;DHT22;63134;52.020;4.714;2023-01-29T00:50:40;5.90;84.20
22787;DHT22;63134;52.020;4.714;2023-01-29T00:53:26;5.90;84.30
22787;DHT22;63134;52.020;4.714;2023-01-29T00:56:12;5.90;84.60
22787;DHT22;63134;52.020;4.714;2023-01-29T00:59:03;5.90;84.50
22787;DHT22;63134;52.020;4.714;2023-01-29T01:01:49;5.90;84.50
22787;DHT22;63134;52.020;4.714;2023-01-29T01:04:54;5.90;84.50
22787;DHT22;63134;52.020;4.714;2023-01-29T01:07:41;5.90;84.50
22787;DHT22;63134;52.020;4.714;2023-01-29T01:10:29;5.90;84.60
22787;DHT22;63134;52.020;4.714;2023-01-29T01:13:18;5.90;84.60
22787;DHT22;63134;52.020;4.714;2023-01-29T01:16:11;5.90;84.60
22787;DHT22;63134;52.020;4.714;2023-01-29T01:18:58;5.90;84.70
22787;DHT22;63134;52.020;4.714;2023-01-29T01:21:43;5.90;84.80
22787;DHT22;63134;52.020;4.714;2023-01-29T01:24:31;5.90;84.70
22787;DHT22;63134;52.020;4.714;2023-01-29T01:27:16;5.90;84.70
22787;DHT22;63134;52.020;4.714;2023-01-29T01:30:04;5.90;84.70
22787;DHT22;63134;52.020;4.714;2023-01-29T01:32:50;5.90;84.70
22787;DHT22;63134;52.020;4.714;2023-01-29T01:35:38;5.90;84.60
22787;DHT22;63134;52.020;4.714;2023-01-29T01:38:25;5.90;84.70
22787;DHT22;63134;52.020;4.714;2023-01-29T01:41:14;5.90;84.60
22787;DHT22;63134;52.020;4.714;2023-01-29T01:44:02;5.90;84.50
22787;DHT22;63134;52.020;4.714;2023-01-29T01:46:48;5.90;84.60
22787;DHT22;63134;52.020;4.714;2023-01-29T01:49:34;5.90;84.70
22787;DHT22;63134;52.020;4.714;2023-01-29T01:52:20;5.90;84.80
22787;DHT22;63134;52.020;4.714;2023-01-29T01:55:08;5.90;84.80
22787;DHT22;63134;52.020;4.714;2023-01-29T01:58:15;5.90;84.90
22787;DHT22;63134;52.020;4.714;2023-01-29T02:01:04;5.90;84.70
22787;DHT22;63134;52.020;4.714;2023-01-29T02:04:05;5.90;84.80
22787;DHT22;63134;52.020;4.714;2023-01-29T02:07:13;5.90;84.70
22787;DHT22;63134;52.020;4.714;2023-01-29T02:10:18;5.90;84.50
22787;DHT22;63134;52.020;4.714;2023-01-29T02:13:05;5.90;84.50
22787;DHT22;63134;52.020;4.714;2023-01-29T02:15:55;6.00;85.30
22787;DHT22;63134;52.020;4.714;2023-01-29T02:18:41;5.90;84.50
22787;DHT22;63134;52.020;4.714;2023-01-29T02:21:35;6.00;84.40
22787;DHT22;63134;52.020;4.714;2023-01-29T02:24:37;5.90;84.40
22787;DHT22;63134;52.020;4.714;2023-01-29T02:34:01;5.90;84.20
22787;DHT22;63134;52.020;4.714;2023-01-29T02:36:57;5.90;84.20
22787;DHT22;63134;52.020;4.714;2023-01-29T02:39:59;6.00;84.30
22787;DHT22;63134;52.020;4.714;2023-01-29T02:43:06;5.90;84.30
22787;DHT22;63134;52.020;4.714;2023-01-29T02:46:00;5.90;84.40
22787;DHT22;63134;52.020;4.714;2023-01-29T02:48:54;5.90;84.50
22787;DHT22;63134;52.020;4.714;2023-01-29T02:51:57;5.90;84.60
22787;DHT22;63134;52.020;4.714;2023-01-29T02:54:58;5.90;84.70
22787;DHT22;63134;52.020;4.714;2023-01-29T02:58:07;5.90;84.80
22787;DHT22;63134;52.020;4.714;2023-01-29T03:01:02;5.90;84.90
22787;DHT22;63134;52.020;4.714;2023-01-29T03:03:59;5.90;84.60
22787;DHT22;63134;52.020;4.714;2023-01-29T03:07:05;5.90;84.60
22787;DHT22;63134;52.020;4.714;2023-01-29T03:09:54;5.90;84.90
22787;DHT22;63134;52.020;4.714;2023-01-29T03:12:43;6.00;84.80
22787;DHT22;63134;52.020;4.714;2023-01-29T03:15:37;6.00;84.60
22787;DHT22;63134;52.020;4.714;2023-01-29T03:18:41;6.00;84.60
22787;DHT22;63134;52.020;4.714;2023-01-29T03:21:40;6.00;84.50
22787;DHT22;63134;52.020;4.714;2023-01-29T03:24:55;5.90;84.50
22787;DHT22;63134;52.020;4.714;2023-01-29T03:28:03;5.90;84.60
22787;DHT22;63134;52.020;4.714;2023-01-29T03:31:11;5.90;84.90
22787;DHT22;63134;52.020;4.714;2023-01-29T03:34:24;5.90;84.80
22787;DHT22;63134;52.020;4.714;2023-01-29T03:40:28;5.90;85.20
22787;DHT22;63134;52.020;4.714;2023-01-29T03:46:26;5.80;85.40
22787;DHT22;63134;52.020;4.714;2023-01-29T03:49:18;5.80;85.60
22787;DHT22;63134;52.020;4.714;2023-01-29T03:58:44;5.80;85.90
22787;DHT22;63134;52.020;4.714;2023-01-29T04:01:52;5.80;86.10
22787;DHT22;63134;52.020;4.714;2023-01-29T04:04:42;5.80;86.00
22787;DHT22;63134;52.020;4.714;2023-01-29T04:07:29;5.80;86.20
22787;DHT22;63134;52.020;4.714;2023-01-29T04:10:24;5.80;86.20
22787;DHT22;63134;52.020;4.714;2023-01-29T04:13:12;5.80;86.50
22787;DHT22;63134;52.020;4.714;2023-01-29T04:16:03;5.70;86.50
22787;DHT22;63134;52.020;4.714;2023-01-29T04:19:08;5.70;86.50
22787;DHT22;63134;52.020;4.714;2023-01-29T04:22:03;5.70;86.60
22787;DHT22;63134;52.020;4.714;2023-01-29T04:24:54;5.70;86.50
22787;DHT22;63134;52.020;4.714;2023-01-29T04:27:57;5.70;86.50
22787;DHT22;63134;52.020;4.714;2023-01-29T04:31:03;5.70;86.50
22787;DHT22;63134;52.020;4.714;2023-01-29T04:34:20;5.70;86.70
22787;DHT22;63134;52.020;4.714;2023-01-29T04:40:13;5.70;86.40
22787;DHT22;63134;52.020;4.714;2023-01-29T04:43:24;5.70;86.30
22787;DHT22;63134;52.020;4.714;2023-01-29T04:46:20;5.70;86.30
22787;DHT22;63134;52.020;4.714;2023-01-29T04:49:39;5.70;86.30
22787;DHT22;63134;52.020;4.714;2023-01-29T04:55:48;5.70;86.20
22787;DHT22;63134;52.020;4.714;2023-01-29T04:58:41;5.70;86.20
22787;DHT22;63134;52.020;4.714;2023-01-29T05:01:30;5.70;86.20
22787;DHT22;63134;52.020;4.714;2023-01-29T05:04:19;5.70;85.80
22787;DHT22;63134;52.020;4.714;2023-01-29T05:07:07;5.70;85.80
22787;DHT22;63134;52.020;4.714;2023-01-29T05:09:56;5.70;85.70
22787;DHT22;63134;52.020;4.714;2023-01-29T05:12:53;5.70;85.70
22787;DHT22;63134;52.020;4.714;2023-01-29T05:15:56;5.70;85.80
22787;DHT22;63134;52.020;4.714;2023-01-29T05:18:47;5.70;85.90
22787;DHT22;63134;52.020;4.714;2023-01-29T05:21:33;5.70;85.80
22787;DHT22;63134;52.020;4.714;2023-01-29T05:24:21;5.70;85.90
22787;DHT22;63134;52.020;4.714;2023-01-29T05:27:19;5.70;86.00
22787;DHT22;63134;52.020;4.714;2023-01-29T05:30:23;5.70;86.00
22787;DHT22;63134;52.020;4.714;2023-01-29T05:33:18;5.70;85.90
22787;DHT22;63134;52.020;4.714;2023-01-29T05:36:04;5.80;85.80
22787;DHT22;63134;52.020;4.714;2023-01-29T05:38:51;5.80;85.70
22787;DHT22;63134;52.020;4.714;2023-01-29T05:41:38;5.80;85.70
22787;DHT22;63134;52.020;4.714;2023-01-29T05:44:23;5.80;85.70
22787;DHT22;63134;52.020;4.714;2023-01-29T05:47:18;5.80;85.80
22787;DHT22;63134;52.020;4.714;2023-01-29T05:50:04;5.80;85.50
22787;DHT22;63134;52.020;4.714;2023-01-29T05:52:58;5.80;85.30
22787;DHT22;63134;52.020;4.714;2023-01-29T05:55:47;5.80;84.90
22787;DHT22;63134;52.020;4.714;2023-01-29T05:58:33;5.90;84.90
22787;DHT22;63134;52.020;4.714;2023-01-29T06:01:24;5.90;84.80
22787;DHT22;63134;52.020;4.714;2023-01-29T06:04:13;5.90;84.50
22787;DHT22;63134;52.020;4.714;2023-01-29T06:06:58;5.90;84.40
22787;DHT22;63134;52.020;4.714;2023-01-29T06:09:45;5.80;84.30
22787;DHT22;63134;52.020;4.714;2023-01-29T06:12:31;5.80;84.20
22787;DHT22;63134;52.020;4.714;2023-01-29T06:15:25;5.80;84.50
22787;DHT22;63134;52.020;4.714;2023-01-29T06:18:11;5.90;84.60
22787;DHT22;63134;52.020;4.714;2023-01-29T06:21:02;5.80;84.50
22787;DHT22;63134;52.020;4.714;2023-01-29T06:23:47;5.80;84.50
22787;DHT22;63134;52.020;4.714;2023-01-29T06:26:32;5.80;84.50
22787;DHT22;63134;52.020;4.714;2023-01-29T06:29:18;5.80;84.90
22787;DHT22;63134;52.020;4.714;2023-01-29T06:32:06;5.80;85.00
22787;DHT22;63134;52.020;4.714;2023-01-29T06:34:51;5.80;85.00
22787;DHT22;63134;52.020;4.714;2023-01-29T06:37:37;5.80;85.10
22787;DHT22;63134;52.020;4.714;2023-01-29T06:40:22;5.80;85.10
22787;DHT22;63134;52.020;4.714;2023-01-29T06:43:10;5.80;85.00
22787;DHT22;63134;52.020;4.714;2023-01-29T06:45:56;5.80;84.90
22787;DHT22;63134;52.020;4.714;2023-01-29T06:48:42;5.80;85.30
22787;DHT22;63134;52.020;4.714;2023-01-29T06:51:27;5.80;85.30
22787;DHT22;63134;52.020;4.714;2023-01-29T06:54:13;5.80;85.40
22787;DHT22;63134;52.020;4.714;2023-01-29T06:56:58;5.80;85.40
22787;DHT22;63134;52.020;4.714;2023-01-29T06:59:46;5.80;85.20
22787;DHT22;63134;52.020;4.714;2023-01-29T07:02:32;5.80;85.40
22787;DHT22;63134;52.020;4.714;2023-01-29T07:05:17;5.90;85.10
22787;DHT22;63134;52.020;4.714;2023-01-29T07:08:06;5.80;85.10
22787;DHT22;63134;52.020;4.714;2023-01-29T07:10:58;5.80;84.90
22787;DHT22;63134;52.020;4.714;2023-01-29T07:13:44;5.90;85.00
22787;DHT22;63134;52.020;4.714;2023-01-29T07:16:29;5.80;84.80
22787;DHT22;63134;52.020;4.714;2023-01-29T07:19:15;5.80;84.70
22787;DHT22;63134;52.020;4.714;2023-01-29T07:22:01;5.90;84.70
22787;DHT22;63134;52.020;4.714;2023-01-29T07:24:48;5.90;84.70
22787;DHT22;63134;52.020;4.714;2023-01-29T07:27:34;5.90;84.40
22787;DHT22;63134;52.020;4.714;2023-01-29T07:30:20;5.90;84.50
22787;DHT22;63134;52.020;4.714;2023-01-29T07:33:09;5.90;84.60
22787;DHT22;63134;52.020;4.714;2023-01-29T07:35:55;5.90;84.60
22787;DHT22;63134;52.020;4.714;2023-01-29T07:38:40;5.90;84.50
22787;DHT22;63134;52.020;4.714;2023-01-29T07:41:26;5.90;84.60
22787;DHT22;63134;52.020;4.714;2023-01-29T07:44:12;5.90;84.50
22787;DHT22;63134;52.020;4.714;2023-01-29T07:46:57;5.90;84.60
22787;DHT22;63134;52.020;4.714;2023-01-29T07:49:43;5.90;84.70
22787;DHT22;63134;52.020;4.714;2023-01-29T07:52:29;5.80;84.40
22787;DHT22;63134;52.020;4.714;2023-01-29T07:55:16;5.90;84.50
22787;DHT22;63134;52.020;4.714;2023-01-29T07:58:02;5.90;84.60
22787;DHT22;63134;52.020;4.714;2023-01-29T08:00:56;5.90;84.60
22787;DHT22;63134;52.020;4.714;2023-01-29T08:03:42;5.90;84.60
22787;DHT22;63134;52.020;4.714;2023-01-29T08:06:30;5.90;84.60
22787;DHT22;63134;52.020;4.714;2023-01-29T08:09:18;5.90;84.50
22787;DHT22;63134;52.020;4.714;2023-01-29T08:12:04;5.90;84.80
22787;DHT22;63134;52.020;4.714;2023-01-29T08:14:50;5.90;84.80
22787;DHT22;63134;52.020;4.714;2023-01-29T08:17:35;6.00;84.60
22787;DHT22;63134;52.020;4.714;2023-01-29T08:20:41;6.00;84.40
22787;DHT22;63134;52.020;4.714;2023-01-29T08:23:29;6.00;84.20
22787;DHT22;63134;52.020;4.714;2023-01-29T08:26:15;6.00;84.30
22787;DHT22;63134;52.020;4.714;2023-01-29T08:29:03;6.00;84.40
22787;DHT22;63134;52.020;4.714;2023-01-29T08:31:49;6.00;84.20
22787;DHT22;63134;52.020;4.714;2023-01-29T08:34:34;6.10;84.10
22787;DHT22;63134;52.020;4.714;2023-01-29T08:37:20;6.10;84.00
22787;DHT22;63134;52.020;4.714;2023-01-29T08:40:06;6.10;84.10
22787;DHT22;63134;52.020;4.714;2023-01-29T08:42:57;6.10;83.80
22787;DHT22;63134;52.020;4.714;2023-01-29T08:45:47;6.10;83.80
22787;DHT22;63134;52.020;4.714;2023-01-29T08:48:35;6.10;83.70
22787;DHT22;63134;52.020;4.714;2023-01-29T08:51:21;6.10;83.40
22787;DHT22;63134;52.020;4.714;2023-01-29T08:54:07;6.10;83.50
22787;DHT22;63134;52.020;4.714;2023-01-29T08:56:52;6.20;83.10
22787;DHT22;63134;52.020;4.714;2023-01-29T08:59:39;6.20;83.00
22787;DHT22;63134;52.020;4.714;2023-01-29T09:02:27;6.30;82.80
22787;DHT22;63134;52.020;4.714;2023-01-29T09:05:13;6.40;82.10
22787;DHT22;63134;52.020;4.714;2023-01-29T09:07:59;6.40;82.20
22787;DHT22;63134;52.020;4.714;2023-01-29T09:10:45;6.40;82.00
22787;DHT22;63134;52.020;4.714;2023-01-29T09:13:30;6.40;82.10
22787;DHT22;63134;52.020;4.714;2023-01-29T09:16:19;6.50;82.00
22787;DHT22;63134;52.020;4.714;2023-01-29T09:19:04;6.50;82.00
22787;DHT22;63134;52.020;4.714;2023-01-29T09:21:50;6.40;82.20
22787;DHT22;63134;52.020;4.714;2023-01-29T09:24:35;6.50;82.20
22787;DHT22;63134;52.020;4.714;2023-01-29T09:27:21;6.50;82.00
22787;DHT22;63134;52.020;4.714;2023-01-29T09:30:09;6.50;82.30
22787;DHT22;63134;52.020;4.714;2023-01-29T09:32:55;6.50;82.50
22787;DHT22;63134;52.020;4.714;2023-01-29T09:35:42;6.60;82.00
22787;DHT22;63134;52.020;4.714;2023-01-29T09:38:34;6.60;82.00
22787;DHT22;63134;52.020;4.714;2023-01-29T09:47:36;6.70;81.80
22787;DHT22;63134;52.020;4.714;2023-01-29T09:50:42;6.60;81.80
22787;DHT22;63134;52.020;4.714;2023-01-29T09:53:40;6.70;82.50
22787;DHT22;63134;52.020;4.714;2023-01-29T09:56:27;6.70;81.70
22787;DHT22;63134;52.020;4.714;2023-01-29T09:59:16;6.70;81.70
22787;DHT22;63134;52.020;4.714;2023-01-29T10:18:10;6.70;82.40
22787;DHT22;63134;52.020;4.714;2023-01-29T10:24:20;6.70;82.50
22787;DHT22;63134;52.020;4.714;2023-01-29T10:27:16;6.70;82.30
22787;DHT22;63134;52.020;4.714;2023-01-29T10:30:05;6.70;82.10
22787;DHT22;63134;52.020;4.714;2023-01-29T10:32:58;6.70;82.00
22787;DHT22;63134;52.020;4.714;2023-01-29T10:35:49;6.70;82.60
22787;DHT22;63134;52.020;4.714;2023-01-29T10:44:52;6.70;82.60
22787;DHT22;63134;52.020;4.714;2023-01-29T10:50:47;6.80;82.20
22787;DHT22;63134;52.020;4.714;2023-01-29T10:54:10;6.80;82.40
22787;DHT22;63134;52.020;4.714;2023-01-29T10:56:52;6.80;82.60
22787;DHT22;63134;52.020;4.714;2023-01-29T10:59:54;6.80;82.50
22787;DHT22;63134;52.020;4.714;2023-01-29T11:02:46;6.80;82.70
22787;DHT22;63134;52.020;4.714;2023-01-29T11:05:42;6.80;83.10
22787;DHT22;63134;52.020;4.714;2023-01-29T11:08:54;6.80;83.10
22787;DHT22;63134;52.020;4.714;2023-01-29T11:11:47;6.80;83.10
22787;DHT22;63134;52.020;4.714;2023-01-29T11:14:51;6.80;83.00
22787;DHT22;63134;52.020;4.714;2023-01-29T11:17:38;6.80;83.10
22787;DHT22;63134;52.020;4.714;2023-01-29T11:20:28;6.90;83.00
22787;DHT22;63134;52.020;4.714;2023-01-29T11:23:29;6.90;82.80
22787;DHT22;63134;52.020;4.714;2023-01-29T11:26:20;6.90;82.90
22787;DHT22;63134;52.020;4.714;2023-01-29T11:29:36;6.90;83.00
22787;DHT22;63134;52.020;4.714;2023-01-29T11:32:25;6.90;83.00
22787;DHT22;63134;52.020;4.714;2023-01-29T11:41:09;6.90;83.00
22787;DHT22;63134;52.020;4.714;2023-01-29T11:43:59;6.90;83.50
22787;DHT22;63134;52.020;4.714;2023-01-29T11:46:45;6.90;83.30
22787;DHT22;63134;52.020;4.714;2023-01-29T11:49:32;7.00;83.50
22787;DHT22;63134;52.020;4.714;2023-01-29T11:52:22;7.00;83.20
22787;DHT22;63134;52.020;4.714;2023-01-29T11:55:30;7.00;83.00
22787;DHT22;63134;52.020;4.714;2023-01-29T11:58:34;7.00;83.00
22787;DHT22;63134;52.020;4.714;2023-01-29T12:01:36;7.00;83.30
22787;DHT22;63134;52.020;4.714;2023-01-29T12:04:23;7.00;83.30
22787;DHT22;63134;52.020;4.714;2023-01-29T12:07:17;7.00;83.60
22787;DHT22;63134;52.020;4.714;2023-01-29T12:10:39;7.00;83.40
22787;DHT22;63134;52.020;4.714;2023-01-29T12:13:26;7.10;83.40
22787;DHT22;63134;52.020;4.714;2023-01-29T12:16:22;7.10;83.50
22787;DHT22;63134;52.020;4.714;2023-01-29T12:28:38;7.20;83.40
22787;DHT22;63134;52.020;4.714;2023-01-29T12:31:26;7.20;83.60
22787;DHT22;63134;52.020;4.714;2023-01-29T12:40:56;7.40;82.70
22787;DHT22;63134;52.020;4.714;2023-01-29T12:46:59;7.70;81.60
22787;DHT22;63134;52.020;4.714;2023-01-29T12:49:49;7.70;81.30
22787;DHT22;63134;52.020;4.714;2023-01-29T12:52:38;7.70;81.50
22787;DHT22;63134;52.020;4.714;2023-01-29T12:55:41;7.80;81.10
22787;DHT22;63134;52.020;4.714;2023-01-29T12:58:39;7.80;80.90
22787;DHT22;63134;52.020;4.714;2023-01-29T13:01:44;7.80;80.90
22787;DHT22;63134;52.020;4.714;2023-01-29T13:04:40;7.70;81.10
22787;DHT22;63134;52.020;4.714;2023-01-29T13:07:39;7.70;81.20
22787;DHT22;63134;52.020;4.714;2023-01-29T13:10:34;7.70;81.40
22787;DHT22;63134;52.020;4.714;2023-01-29T13:13:32;7.70;81.60
22787;DHT22;63134;52.020;4.714;2023-01-29T13:16:22;7.60;81.40
22787;DHT22;63134;52.020;4.714;2023-01-29T13:19:39;7.70;81.30
22787;DHT22;63134;52.020;4.714;2023-01-29T13:22:27;7.70;81.10
22787;DHT22;63134;52.020;4.714;2023-01-29T13:25:15;7.70;81.20
22787;DHT22;63134;52.020;4.714;2023-01-29T13:28:01;7.60;81.30
22787;DHT22;63134;52.020;4.714;2023-01-29T13:31:11;7.70;80.90
22787;DHT22;63134;52.020;4.714;2023-01-29T13:37:01;7.70;80.70
22787;DHT22;63134;52.020;4.714;2023-01-29T13:39:49;7.80;80.70
22787;DHT22;63134;52.020;4.714;2023-01-29T13:42:44;7.80;80.30
22787;DHT22;63134;52.020;4.714;2023-01-29T13:48:30;7.80;80.80
22787;DHT22;63134;52.020;4.714;2023-01-29T13:51:20;7.80;80.60
22787;DHT22;63134;52.020;4.714;2023-01-29T13:54:15;7.70;80.90
22787;DHT22;63134;52.020;4.714;2023-01-29T13:57:02;7.80;81.00
22787;DHT22;63134;52.020;4.714;2023-01-29T13:59:50;7.80;80.70
22787;DHT22;63134;52.020;4.714;2023-01-29T14:02:37;7.70;80.90
22787;DHT22;63134;52.020;4.714;2023-01-29T14:13:59;7.70;81.70
22787;DHT22;63134;52.020;4.714;2023-01-29T14:16:49;7.70;81.70
22787;DHT22;63134;52.020;4.714;2023-01-29T14:19:34;7.70;81.70
22787;DHT22;63134;52.020;4.714;2023-01-29T14:22:25;7.80;81.50
22787;DHT22;63134;52.020;4.714;2023-01-29T14:25:18;7.90;81.40
22787;DHT22;63134;52.020;4.714;2023-01-29T14:28:14;7.90;81.00
22787;DHT22;63134;52.020;4.714;2023-01-29T14:31:00;7.90;81.10
22787;DHT22;63134;52.020;4.714;2023-01-29T14:33:50;7.80;81.50
22787;DHT22;63134;52.020;4.714;2023-01-29T14:36:41;7.80;81.60
22787;DHT22;63134;52.020;4.714;2023-01-29T14:39:30;7.80;82.00
22787;DHT22;63134;52.020;4.714;2023-01-29T14:42:32;7.80;81.90
22787;DHT22;63134;52.020;4.714;2023-01-29T14:45:25;7.70;82.10
22787;DHT22;63134;52.020;4.714;2023-01-29T14:48:37;7.70;82.80
22787;DHT22;63134;52.020;4.714;2023-01-29T14:51:24;7.70;82.80
22787;DHT22;63134;52.020;4.714;2023-01-29T14:54:24;7.70;82.60
22787;DHT22;63134;52.020;4.714;2023-01-29T14:57:14;7.70;82.70
22787;DHT22;63134;52.020;4.714;2023-01-29T15:00:05;7.70;82.70
22787;DHT22;63134;52.020;4.714;2023-01-29T15:03:00;7.60;83.20
22787;DHT22;63134;52.020;4.714;2023-01-29T15:05:52;7.50;84.00
22787;DHT22;63134;52.020;4.714;2023-01-29T15:08:46;7.50;84.30
22787;DHT22;63134;52.020;4.714;2023-01-29T15:14:35;7.40;84.60
22787;DHT22;63134;52.020;4.714;2023-01-29T15:17:32;7.50;84.70
22787;DHT22;63134;52.020;4.714;2023-01-29T15:20:29;7.40;85.00
22787;DHT22;63134;52.020;4.714;2023-01-29T15:26:21;7.30;85.30
22787;DHT22;63134;52.020;4.714;2023-01-29T15:29:21;7.30;85.40
22787;DHT22;63134;52.020;4.714;2023-01-29T15:32:19;7.30;85.80
22787;DHT22;63134;52.020;4.714;2023-01-29T15:35:36;7.20;86.10
22787;DHT22;63134;52.020;4.714;2023-01-29T15:38:23;7.20;86.40
22787;DHT22;63134;52.020;4.714;2023-01-29T15:41:18;7.10;86.80
22787;DHT22;63134;52.020;4.714;2023-01-29T15:44:21;7.10;86.90
22787;DHT22;63134;52.020;4.714;2023-01-29T15:47:08;7.10;87.60
22787;DHT22;63134;52.020;4.714;2023-01-29T15:49:54;7.00;88.30
22787;DHT22;63134;52.020;4.714;2023-01-29T15:52:41;7.00;88.90
22787;DHT22;63134;52.020;4.714;2023-01-29T15:55:27;6.90;89.30
22787;DHT22;63134;52.020;4.714;2023-01-29T15:58:24;6.90;89.60
22787;DHT22;63134;52.020;4.714;2023-01-29T16:01:12;6.90;89.70
22787;DHT22;63134;52.020;4.714;2023-01-29T16:04:04;6.80;89.90
22787;DHT22;63134;52.020;4.714;2023-01-29T16:06:52;6.90;90.00
22787;DHT22;63134;52.020;4.714;2023-01-29T16:09:38;6.90;90.00
22787;DHT22;63134;52.020;4.714;2023-01-29T16:12:27;6.90;90.00
22787;DHT22;63134;52.020;4.714;2023-01-29T16:15:22;6.90;89.60
22787;DHT22;63134;52.020;4.714;2023-01-29T16:18:23;6.90;89.70
22787;DHT22;63134;52.020;4.714;2023-01-29T16:24:10;6.90;89.00
22787;DHT22;63134;52.020;4.714;2023-01-29T16:27:00;7.00;88.60
22787;DHT22;63134;52.020;4.714;2023-01-29T16:29:49;6.80;88.90
22787;DHT22;63134;52.020;4.714;2023-01-29T16:32:35;6.90;88.70
22787;DHT22;63134;52.020;4.714;2023-01-29T16:35:20;6.80;88.80
22787;DHT22;63134;52.020;4.714;2023-01-29T16:38:26;6.80;88.90
22787;DHT22;63134;52.020;4.714;2023-01-29T16:47:11;6.90;87.80
22787;DHT22;63134;52.020;4.714;2023-01-29T16:50:20;6.80;88.20
22787;DHT22;63134;52.020;4.714;2023-01-29T16:53:18;6.80;88.00
22787;DHT22;63134;52.020;4.714;2023-01-29T16:56:09;6.80;87.90
22787;DHT22;63134;52.020;4.714;2023-01-29T16:58:58;6.80;87.80
22787;DHT22;63134;52.020;4.714;2023-01-29T17:01:44;6.70;88.20
22787;DHT22;63134;52.020;4.714;2023-01-29T17:04:29;6.70;88.40
22787;DHT22;63134;52.020;4.714;2023-01-29T17:07:16;6.70;88.50
22787;DHT22;63134;52.020;4.714;2023-01-29T17:10:16;6.80;88.30
22787;DHT22;63134;52.020;4.714;2023-01-29T17:13:06;6.80;88.50
22787;DHT22;63134;52.020;4.714;2023-01-29T17:16:00;6.80;88.40
22787;DHT22;63134;52.020;4.714;2023-01-29T17:18:47;6.80;88.10
22787;DHT22;63134;52.020;4.714;2023-01-29T17:21:33;6.80;88.10
22787;DHT22;63134;52.020;4.714;2023-01-29T17:24:21;6.80;88.10
22787;DHT22;63134;52.020;4.714;2023-01-29T17:27:21;6.80;88.00
22787;DHT22;63134;52.020;4.714;2023-01-29T17:30:13;6.80;88.10
22787;DHT22;63134;52.020;4.714;2023-01-29T17:33:00;6.80;88.40
22787;DHT22;63134;52.020;4.714;2023-01-29T17:35:49;6.80;88.50
22787;DHT22;63134;52.020;4.714;2023-01-29T17:38:37;6.80;88.60
22787;DHT22;63134;52.020;4.714;2023-01-29T17:41:25;6.80;88.60
22787;DHT22;63134;52.020;4.714;2023-01-29T17:44:11;6.70;88.70
22787;DHT22;63134;52.020;4.714;2023-01-29T17:47:03;6.70;88.70
22787;DHT22;63134;52.020;4.714;2023-01-29T17:49:49;6.80;89.00
22787;DHT22;63134;52.020;4.714;2023-01-29T17:52:35;6.80;88.90
22787;DHT22;63134;52.020;4.714;2023-01-29T17:55:24;6.80;88.60
22787;DHT22;63134;52.020;4.714;2023-01-29T17:58:25;6.90;88.30
22787;DHT22;63134;52.020;4.714;2023-01-29T18:01:15;6.90;88.70
22787;DHT22;63134;52.020;4.714;2023-01-29T18:04:00;6.80;88.70
22787;DHT22;63134;52.020;4.714;2023-01-29T18:06:48;6.80;89.30
22787;DHT22;63134;52.020;4.714;2023-01-29T18:09:34;6.80;89.20
22787;DHT22;63134;52.020;4.714;2023-01-29T18:12:20;6.80;89.30
22787;DHT22;63134;52.020;4.714;2023-01-29T18:15:05;6.90;89.50
22787;DHT22;63134;52.020;4.714;2023-01-29T18:17:51;6.90;89.40
22787;DHT22;63134;52.020;4.714;2023-01-29T18:20:36;6.80;89.90
22787;DHT22;63134;52.020;4.714;2023-01-29T18:23:26;6.80;90.20
22787;DHT22;63134;52.020;4.714;2023-01-29T18:26:16;6.90;90.10
22787;DHT22;63134;52.020;4.714;2023-01-29T18:29:02;6.90;90.20
22787;DHT22;63134;52.020;4.714;2023-01-29T18:31:48;6.90;90.20
22787;DHT22;63134;52.020;4.714;2023-01-29T18:34:34;6.90;90.30
22787;DHT22;63134;52.020;4.714;2023-01-29T18:37:19;6.90;90.30
22787;DHT22;63134;52.020;4.714;2023-01-29T18:40:09;6.90;90.40
22787;DHT22;63134;52.020;4.714;2023-01-29T18:42:58;6.80;90.60
22787;DHT22;63134;52.020;4.714;2023-01-29T18:45:45;6.90;90.70
22787;DHT22;63134;52.020;4.714;2023-01-29T18:48:31;6.90;90.60
22787;DHT22;63134;52.020;4.714;2023-01-29T18:51:16;6.90;90.60
22787;DHT22;63134;52.020;4.714;2023-01-29T18:54:02;6.90;90.70
22787;DHT22;63134;52.020;4.714;2023-01-29T18:56:48;7.00;90.60
22787;DHT22;63134;52.020;4.714;2023-01-29T18:59:53;7.00;90.60
22787;DHT22;63134;52.020;4.714;2023-01-29T19:02:39;7.00;90.60
22787;DHT22;63134;52.020;4.714;2023-01-29T19:05:24;6.90;90.70
22787;DHT22;63134;52.020;4.714;2023-01-29T19:08:10;6.90;90.70
22787;DHT22;63134;52.020;4.714;2023-01-29T19:10:56;7.00;90.70
22787;DHT22;63134;52.020;4.714;2023-01-29T19:13:42;7.00;90.70
22787;DHT22;63134;52.020;4.714;2023-01-29T19:16:27;7.00;90.90
22787;DHT22;63134;52.020;4.714;2023-01-29T19:19:15;7.00;90.70
22787;DHT22;63134;52.020;4.714;2023-01-29T19:22:03;7.00;90.70
22787;DHT22;63134;52.020;4.714;2023-01-29T19:24:52;7.00;90.70
22787;DHT22;63134;52.020;4.714;2023-01-29T19:27:37;6.90;90.90
22787;DHT22;63134;52.020;4.714;2023-01-29T19:30:23;7.00;91.00
22787;DHT22;63134;52.020;4.714;2023-01-29T19:33:08;7.00;90.90
22787;DHT22;63134;52.020;4.714;2023-01-29T19:35:56;7.00;90.90
22787;DHT22;63134;52.020;4.714;2023-01-29T19:38:41;7.00;91.00
22787;DHT22;63134;52.020;4.714;2023-01-29T19:41:27;7.00;91.40
22787;DHT22;63134;52.020;4.714;2023-01-29T19:44:14;7.10;91.20
22787;DHT22;63134;52.020;4.714;2023-01-29T19:47:02;7.10;90.90
22787;DHT22;63134;52.020;4.714;2023-01-29T19:49:49;7.10;90.90
22787;DHT22;63134;52.020;4.714;2023-01-29T19:52:34;7.00;91.10
22787;DHT22;63134;52.020;4.714;2023-01-29T19:55:35;7.10;90.90
22787;DHT22;63134;52.020;4.714;2023-01-29T19:58:20;7.10;91.10
22787;DHT22;63134;52.020;4.714;2023-01-29T20:01:18;7.10;91.30
22787;DHT22;63134;52.020;4.714;2023-01-29T20:04:04;7.00;91.40
22787;DHT22;63134;52.020;4.714;2023-01-29T20:06:49;7.00;91.60
22787;DHT22;63134;52.020;4.714;2023-01-29T20:09:35;7.00;91.50
22787;DHT22;63134;52.020;4.714;2023-01-29T20:12:20;7.20;91.30